Time;durP1;ratioP1;P1;durP2;ratioP2;P2;SDS_P1;SDS_P2;PMS_P1;PMS_P2;Temp;Humidity;BMP_temperature;BMP_pressure;BME280_temperature;BME280_humidity;BME280_pressure;Samples;Min_cycle;Max_cycle;Signal;HPM_P1;HPM_P2
2022/01/19 00:01:03;;;;;;;9.53;3.90;;;;;;;2.86;52.06;95838.97;5012159;28;20199;-79
2022/01/19 00:03:30;;;;;;;7.87;4.17;;;;;;;2.71;51.69;95823.53;5012356;28;20671;-79
2022/01/19 00:05:57;;;;;;;9.53;4.03;;;;;;;2.71;51.90;95833.66;5011990;28;20196;-80
2022/01/19 00:08:26;;;;;;;8.10;4.30;;;;;;;3.13;51.87;95895.94;5012228;28;20228;-78
2022/01/19 00:10:53;;;;;;;7.33;4.00;;;;;;;2.84;51.77;95848.31;5011536;28;20729;-78
2022/01/19 00:13:21;;;;;;;7.67;4.13;;;;;;;2.99;51.78;95886.41;5011577;28;20253;-80
2022/01/19 00:15:49;;;;;;;8.53;3.90;;;;;;;3.13;51.85;95916.16;5011308;28;20200;-79
2022/01/19 00:18:19;;;;;;;7.93;4.27;;;;;;;3.12;51.67;95911.19;5010746;28;20196;-78
2022/01/19 00:20:46;;;;;;;6.23;4.30;;;;;;;3.04;51.73;95900.56;5011260;28;20196;-78
2022/01/19 00:23:15;;;;;;;7.90;4.27;;;;;;;3.10;51.90;95911.22;5011888;28;20632;-78
2022/01/19 00:25:43;;;;;;;8.77;4.40;;;;;;;3.08;51.69;95924.84;5011677;28;20690;-78
2022/01/19 00:28:10;;;;;;;8.80;4.10;;;;;;;3.08;51.74;95924.84;5011487;28;20192;-79
2022/01/19 00:30:39;;;;;;;6.77;4.10;;;;;;;2.81;51.73;95892.22;5011642;28;20196;-79
2022/01/19 00:33:05;;;;;;;5.77;3.77;;;;;;;2.90;51.76;95916.28;5012116;28;20774;-79
2022/01/19 00:35:35;;;;;;;7.13;3.83;;;;;;;3.08;51.71;95935.75;5011981;28;20203;-79
2022/01/19 00:38:02;;;;;;;6.57;3.83;;;;;;;2.89;51.66;95912.09;5011594;28;20192;-79
2022/01/19 00:40:29;;;;;;;5.47;3.63;;;;;;;2.93;51.60;95913.63;5011428;28;20196;-80
2022/01/19 00:42:56;;;;;;;6.30;3.70;;;;;;;3.08;51.76;95934.94;5011268;28;20193;-78
2022/01/19 00:45:23;;;;;;;6.77;3.70;;;;;;;3.07;51.70;95946.75;5011481;28;20184;-78
2022/01/19 00:47:51;;;;;;;6.13;3.80;;;;;;;3.01;51.95;95937.69;5011363;28;20192;-80
2022/01/19 00:50:24;;;;;;;9.03;3.93;;;;;;;3.05;51.91;95935.88;5011537;28;20710;-78
2022/01/19 00:52:52;;;;;;;8.77;4.87;;;;;;;3.06;51.89;95949.31;5011010;28;20224;-78
2022/01/19 00:55:24;;;;;;;6.90;4.30;;;;;;;3.05;51.94;95962.84;5011330;28;20603;-80
2022/01/19 00:57:52;;;;;;;7.13;4.20;;;;;;;3.04;52.00;95963.75;5011428;28;20263;-79
2022/01/19 01:00:20;;;;;;;8.93;4.03;;;;;;;2.96;52.24;95954.75;5010682;28;20211;-79
2022/01/19 01:02:47;;;;;;;9.13;3.57;;;;;;;2.53;52.08;95887.41;5010813;28;20212;-77
2022/01/19 01:05:15;;;;;;;9.17;4.23;;;;;;;3.04;52.02;95974.66;5011193;28;20195;-80
2022/01/19 01:07:43;;;;;;;9.33;4.03;;;;;;;2.78;51.90;95926.88;5010876;28;20635;-79
2022/01/19 01:10:12;;;;;;;4.40;3.63;;;;;;;3.03;52.09;95967.97;5010928;28;20207;-78
2022/01/19 01:12:46;;;;;;;6.77;3.53;;;;;;;2.88;51.98;95956.75;5011524;28;20224;-79
2022/01/19 01:15:37;;;;;;;5.27;4.00;;;;;;;2.80;52.09;95943.59;5012375;28;20192;-79
2022/01/19 01:18:19;;;;;;;4.50;3.33;;;;;;;3.00;52.20;95975.66;5011397;28;20327;-78
2022/01/19 01:20:51;;;;;;;5.27;3.63;;;;;;;3.00;52.25;95965.56;5011410;28;20576;-78
2022/01/19 01:23:20;;;;;;;5.37;4.00;;;;;;;2.78;52.23;95927.69;5010795;28;20207;-79
2022/01/19 01:25:47;;;;;;;7.97;4.03;;;;;;;2.93;52.13;95951.50;5012258;28;20203;-78
2022/01/19 01:28:14;;;;;;;5.83;3.80;;;;;;;2.98;52.29;95959.75;5011859;28;20199;-78
2022/01/19 01:30:42;;;;;;;6.53;3.97;;;;;;;2.67;52.31;95912.13;5016327;28;20216;-78
2022/01/19 01:33:10;;;;;;;6.33;3.57;;;;;;;2.97;52.46;95938.69;5017517;28;20192;-80
2022/01/19 01:35:37;;;;;;;5.80;3.70;;;;;;;2.71;52.64;95904.38;5012359;28;20274;-78
2022/01/19 01:38:06;;;;;;;9.43;4.27;;;;;;;2.82;52.56;95931.75;5011199;28;20667;-79
2022/01/19 01:40:35;;;;;;;8.10;3.93;;;;;;;2.60;52.54;95882.97;5011074;28;20759;-79
2022/01/19 01:43:04;;;;;;;5.97;4.20;;;;;;;2.94;52.43;95940.56;5011133;28;20186;-78
2022/01/19 01:45:33;;;;;;;7.27;3.97;;;;;;;2.90;52.43;95936.50;5010877;28;20193;-77
2022/01/19 01:48:11;;;;;;;7.37;4.13;;;;;;;2.79;52.51;95909.13;5011017;28;20184;-78
2022/01/19 01:53:27;;;;;;;9.03;4.13;;;;;;;2.87;52.58;95918.94;5011037;28;20204;-79
2022/01/19 01:55:59;;;;;;;8.77;4.43;;;;;;;2.78;52.71;95904.13;5010743;28;20268;-78
2022/01/19 01:58:27;;;;;;;7.63;4.30;;;;;;;2.86;52.68;95912.25;5010548;28;20185;-78
2022/01/19 02:00:54;;;;;;;8.87;4.17;;;;;;;2.85;52.49;95918.16;5010125;28;20203;-79
2022/01/19 02:03:23;;;;;;;7.50;3.50;;;;;;;2.63;52.73;95890.41;5010156;28;20204;-79
2022/01/19 02:06:16;;;;;;;4.90;3.40;;;;;;;2.78;52.54;95899.09;5010527;28;20219;-78
2022/01/19 02:08:50;;;;;;;10.33;4.50;;;;;;;2.84;52.70;95909.75;5010811;28;20310;-78
2022/01/19 02:15:48;;;;;;;15.30;7.30;;;;;;;2.82;52.87;95893.84;5010778;28;20235;-78
2022/01/19 02:22:58;;;;;;;10.23;6.10;;;;;;;2.77;52.64;95885.63;5013961;28;20254;-78
2022/01/19 02:25:29;;;;;;;7.83;5.67;;;;;;;2.76;52.54;95883.97;5013767;28;20188;-78
2022/01/19 02:31:20;;;;;;;7.77;5.27;;;;;;;2.73;52.73;95884.94;5015667;28;20232;-80
2022/01/19 02:41:59;;;;;;;13.67;6.50;;;;;;;2.65;52.74;95874.31;4953188;29;20266;-78
2022/01/19 02:44:40;;;;;;;15.43;6.97;;;;;;;2.67;52.42;95867.47;4952707;29;20246;-79
2022/01/19 02:49:53;;;;;;;12.03;6.67;;;;;;;2.75;52.57;95890.72;4952689;29;20710;-78
2022/01/19 02:52:23;;;;;;;11.53;7.20;;;;;;;2.75;52.36;95889.91;4952610;29;20210;-78
2022/01/19 02:54:51;;;;;;;12.37;7.30;;;;;;;2.59;52.42;95871.19;4952274;28;20289;-79
2022/01/19 02:57:23;;;;;;;7.20;6.10;;;;;;;2.37;52.47;95839.22;4952420;29;20217;-79
2022/01/19 03:06:16;;;;;;;9.33;6.20;;;;;;;2.71;52.48;95901.03;4952394;29;20245;-78
2022/01/19 03:10:51;;;;;;;6.00;4.67;;;;;;;2.59;52.50;95889.72;4954955;29;20217;-77
2022/01/19 03:13:18;;;;;;;9.60;5.50;;;;;;;2.67;52.49;95897.78;4954890;29;20236;-77
2022/01/19 03:15:46;;;;;;;10.40;4.50;;;;;;;2.59;52.62;95874.56;4983322;28;20200;-78
2022/01/19 03:18:13;;;;;;;6.50;4.20;;;;;;;2.68;52.50;95886.00;5013998;28;20204;-78
2022/01/19 03:20:40;;;;;;;9.57;4.30;;;;;;;2.62;52.36;95871.06;5013554;28;20200;-78
2022/01/19 03:23:16;;;;;;;6.20;3.90;;;;;;;2.63;52.35;95872.72;5012414;28;20567;-80
2022/01/19 03:25:43;;;;;;;7.27;4.10;;;;;;;2.68;52.24;95879.25;5013041;28;20285;-80
2022/01/19 03:28:11;;;;;;;4.97;3.93;;;;;;;2.69;52.31;95882.59;5011528;28;20204;-79
2022/01/19 03:30:38;;;;;;;7.27;4.50;;;;;;;2.64;52.25;95879.44;5013254;28;20595;-78
2022/01/19 03:33:05;;;;;;;6.03;3.70;;;;;;;2.72;52.40;95887.50;5012607;28;20224;-79
2022/01/19 03:35:32;;;;;;;12.03;3.93;;;;;;;2.64;52.13;95890.34;5013062;28;20834;-79
2022/01/19 03:37:59;;;;;;;7.03;4.33;;;;;;;2.58;52.13;95879.66;5012675;28;20644;-79
2022/01/19 03:40:28;;;;;;;5.40;4.00;;;;;;;2.69;52.23;95910.38;5013002;28;20594;-80
2022/01/19 03:42:55;;;;;;;4.73;3.50;;;;;;;2.49;52.07;95875.78;5012661;28;20668;-79
2022/01/19 03:45:22;;;;;;;5.87;4.37;;;;;;;2.69;52.58;95908.66;5012519;28;20185;-79
2022/01/19 03:47:54;;;;;;;13.63;4.57;;;;;;;2.70;52.01;95904.44;5013216;28;20200;-80
2022/01/19 03:50:21;;;;;;;8.03;4.40;;;;;;;2.39;52.12;95854.31;5012356;28;20196;-77
2022/01/19 03:52:48;;;;;;;4.43;3.57;;;;;;;2.70;52.13;95894.34;5012841;28;20224;-78
2022/01/19 03:55:15;;;;;;;5.90;3.93;;;;;;;2.62;52.29;95878.66;5011823;28;20668;-78
2022/01/19 03:57:44;;;;;;;4.43;3.50;;;;;;;2.69;52.20;95905.31;5012691;28;20667;-79
2022/01/19 04:00:12;;;;;;;7.03;4.33;;;;;;;2.71;52.03;95908.59;5011972;28;20220;-77
2022/01/19 04:02:40;;;;;;;7.13;4.33;;;;;;;2.59;52.12;95883.81;5012505;28;20193;-81
2022/01/19 04:05:14;;;;;;;6.47;3.70;;;;;;;2.73;51.94;95896.75;5012076;28;20544;-79
2022/01/19 04:07:40;;;;;;;6.60;3.60;;;;;;;2.72;51.95;95906.03;5011877;28;20236;-78
2022/01/19 04:10:08;;;;;;;7.27;3.53;;;;;;;2.63;51.99;95892.91;5011751;28;20199;-79
2022/01/19 04:12:47;;;;;;;7.37;3.63;;;;;;;2.62;51.88;95881.19;5011964;28;20212;-80
2022/01/19 04:15:19;;;;;;;4.27;3.33;;;;;;;2.72;52.05;95912.75;5011789;28;20196;-80
2022/01/19 04:17:51;;;;;;;10.83;4.30;;;;;;;2.48;51.76;95881.72;5011961;28;20191;-78
2022/01/19 04:20:20;;;;;;;7.43;4.27;;;;;;;2.65;51.93;95906.31;5011355;28;20667;-79
2022/01/19 04:22:49;;;;;;;5.37;3.90;;;;;;;2.72;51.93;95918.66;5012096;28;20193;-79
2022/01/19 04:25:15;;;;;;;6.73;4.17;;;;;;;2.64;51.97;95910.56;5011279;28;20193;-79
2022/01/19 04:27:43;;;;;;;6.53;4.50;;;;;;;2.43;52.03;95873.50;5013731;28;20184;-79
2022/01/19 04:30:13;;;;;;;11.07;5.73;;;;;;;2.73;52.05;95929.59;5013721;28;20251;-79
2022/01/19 04:32:48;;;;;;;5.87;4.93;;;;;;;2.74;51.74;95931.22;5012510;28;20238;-80
2022/01/19 04:35:20;;;;;;;6.33;4.70;;;;;;;2.74;51.91;95934.56;5013166;28;20729;-79
2022/01/19 04:54:42;;;;;;;7.93;4.93;;;;;;;2.77;51.71;95946.25;4951082;29;20268;-78
2022/01/19 05:03:06;;;;;;;7.67;4.10;;;;;;;2.75;51.65;95958.94;4875957;29;20201;-78
2022/01/19 05:05:33;;;;;;;8.20;4.63;;;;;;;2.74;51.72;95951.41;4874586;29;20208;-78
2022/01/19 05:08:10;;;;;;;8.80;4.57;;;;;;;2.56;51.68;95921.84;4874904;29;20257;-79
2022/01/19 05:13:33;;;;;;;8.43;4.80;;;;;;;2.75;51.80;95958.09;4875300;29;20243;-78
2022/01/19 05:16:01;;;;;;;6.07;4.20;;;;;;;2.68;51.61;95946.63;4876675;29;20288;-78
2022/01/19 05:18:34;;;;;;;7.90;4.10;;;;;;;2.76;51.77;95962.28;4932482;29;20195;-81
2022/01/19 05:21:03;;;;;;;7.67;4.43;;;;;;;2.68;51.68;95957.53;4932740;29;20194;-81
2022/01/19 05:23:39;;;;;;;9.03;4.27;;;;;;;2.76;51.63;95970.69;4932666;29;20198;-77
2022/01/19 05:26:11;;;;;;;6.40;4.33;;;;;;;2.75;51.55;95970.75;4932326;29;20195;-80
2022/01/19 05:28:39;;;;;;;5.07;4.50;;;;;;;2.75;51.55;95979.13;4916244;29;20199;-80
2022/01/19 05:31:05;;;;;;;8.10;4.80;;;;;;;2.75;51.67;95976.59;4931498;29;20616;-79
2022/01/19 05:33:32;;;;;;;9.10;4.17;;;;;;;2.77;51.64;95979.09;4930707;29;20227;-79
2022/01/19 05:35:59;;;;;;;5.23;3.87;;;;;;;2.65;51.55;95955.13;4931422;29;20203;-78
2022/01/19 05:38:28;;;;;;;9.50;5.00;;;;;;;2.79;51.72;95984.91;4931131;29;20198;-78
2022/01/19 05:40:56;;;;;;;7.83;4.77;;;;;;;2.78;51.41;95990.03;5005441;28;20200;-78
2022/01/19 05:43:22;;;;;;;6.13;4.73;;;;;;;2.80;51.67;95993.28;5012996;28;20203;-82
2022/01/19 05:45:49;;;;;;;4.93;4.03;;;;;;;2.71;51.55;95980.13;5020517;28;20208;-78
2022/01/19 05:48:17;;;;;;;5.93;4.50;;;;;;;2.82;51.50;96006.72;5015638;28;20191;-80
2022/01/19 05:50:44;;;;;;;7.97;4.63;;;;;;;2.79;51.85;96000.06;5015098;28;20185;-79
2022/01/19 05:53:11;;;;;;;7.40;4.83;;;;;;;2.80;51.81;96009.28;5015305;28;20224;-82
2022/01/19 05:55:39;;;;;;;12.13;5.07;;;;;;;2.82;51.71;96015.09;5014700;28;20671;-79
2022/01/19 05:58:06;;;;;;;7.90;5.20;;;;;;;2.83;52.10;96015.91;5015347;28;20323;-81
2022/01/19 06:00:34;;;;;;;9.17;5.20;;;;;;;2.84;52.23;96020.91;5015054;28;20188;-81
2022/01/19 06:03:01;;;;;;;5.30;4.30;;;;;;;2.68;51.99;95995.44;5015157;28;20204;-80
2022/01/19 06:05:28;;;;;;;7.00;4.57;;;;;;;2.87;52.18;96019.97;5014612;28;20215;-78
2022/01/19 06:08:11;;;;;;;7.80;4.73;;;;;;;2.91;52.27;96024.84;5016320;28;20220;-79
2022/01/19 06:10:45;;;;;;;9.50;5.50;;;;;;;2.92;52.14;96008.81;5016489;28;20185;-77
2022/01/19 06:13:13;;;;;;;8.20;4.87;;;;;;;2.96;52.37;96012.03;5015740;28;20223;-78
2022/01/19 06:15:41;;;;;;;8.33;5.47;;;;;;;2.69;52.54;95970.97;5015959;28;20207;-78
2022/01/19 06:18:08;;;;;;;11.60;5.17;;;;;;;3.03;52.38;96020.22;5014850;28;20243;-78
2022/01/19 06:20:35;;;;;;;8.90;4.13;;;;;;;3.06;52.50;96015.03;5014856;28;20193;-79
2022/01/19 06:23:02;;;;;;;9.37;5.27;;;;;;;3.17;52.21;96028.91;5014471;28;20251;-79
2022/01/19 06:25:28;;;;;;;13.50;5.73;;;;;;;3.23;52.24;96021.06;5014431;28;20185;-78
2022/01/19 06:27:57;;;;;;;10.57;5.30;;;;;;;2.64;52.19;95920.66;5014336;28;20199;-79
2022/01/19 06:30:24;;;;;;;11.87;4.93;;;;;;;3.40;52.26;96030.50;5014593;28;20187;-80
2022/01/19 06:32:51;;;;;;;9.37;5.60;;;;;;;3.53;51.94;96023.25;5014122;28;20582;-79
2022/01/19 06:35:18;;;;;;;10.10;5.77;;;;;;;3.55;51.68;95995.41;5014624;28;20192;-79
2022/01/19 06:37:44;;;;;;;9.27;5.67;;;;;;;4.03;51.28;96026.22;5013505;28;20199;-80
2022/01/19 06:40:14;;;;;;;11.63;5.60;;;;;;;4.38;51.30;96028.94;5013902;28;20192;-79
2022/01/19 06:42:42;;;;;;;12.57;6.40;;;;;;;4.30;50.90;95956.75;5014011;28;20192;-79
2022/01/19 06:45:12;;;;;;;11.47;6.57;;;;;;;5.23;50.78;96034.38;5013643;28;20196;-80
2022/01/19 06:47:40;;;;;;;9.40;5.87;;;;;;;5.70;50.65;96030.44;5013259;28;20291;-78
2022/01/19 06:50:09;;;;;;;10.97;5.77;;;;;;;6.19;50.59;96039.00;5013655;28;20196;-80
2022/01/19 06:52:37;;;;;;;11.63;5.27;;;;;;;6.67;50.33;96041.66;5013573;28;20235;-79
2022/01/19 06:55:05;;;;;;;9.33;5.80;;;;;;;7.00;49.77;96016.97;5013277;28;20193;-79
2022/01/19 06:57:31;;;;;;;9.23;5.47;;;;;;;7.64;49.49;96050.78;5013126;28;20196;-79
2022/01/19 06:59:58;;;;;;;10.67;5.37;;;;;;;7.76;48.89;95986.38;5013363;28;20199;-78
2022/01/19 07:02:28;;;;;;;10.87;5.97;;;;;;;8.54;48.48;96031.97;5014197;28;20185;-79
2022/01/19 07:04:55;;;;;;;11.10;5.73;;;;;;;8.67;47.79;95986.13;5013488;28;20652;-79
2022/01/19 07:07:22;;;;;;;9.30;5.40;;;;;;;9.40;47.13;96035.13;5013286;28;20224;-79
2022/01/19 07:09:49;;;;;;;8.17;4.70;;;;;;;9.73;46.67;96013.47;5013599;28;20185;-78
2022/01/19 07:12:16;;;;;;;11.27;4.90;;;;;;;9.99;46.22;95989.56;5013171;28;20203;-78
2022/01/19 07:14:43;;;;;;;10.27;5.13;;;;;;;10.62;45.96;96023.72;5013107;28;20204;-78
2022/01/19 07:17:14;;;;;;;9.87;5.77;;;;;;;10.91;45.08;95995.28;5013971;28;20185;-77
2022/01/19 07:19:42;;;;;;;8.00;5.57;;;;;;;11.43;44.11;96006.94;5013472;28;20195;-78
2022/01/19 07:22:09;;;;;;;8.10;5.43;;;;;;;11.79;43.57;96003.47;5012730;28;20199;-79
2022/01/19 07:24:36;;;;;;;9.70;5.40;;;;;;;11.79;43.30;95942.78;5013349;28;20648;-79
2022/01/19 07:27:07;;;;;;;10.33;5.53;;;;;;;12.20;42.38;95963.69;5013572;28;20229;-78
2022/01/19 07:29:36;;;;;;;8.47;4.87;;;;;;;12.52;41.82;95969.75;5012841;28;20191;-79
2022/01/19 07:32:03;;;;;;;9.57;5.03;;;;;;;12.90;41.29;95965.13;5012583;28;20197;-77
2022/01/19 07:34:30;;;;;;;10.30;5.13;;;;;;;13.31;40.80;95997.88;5012447;28;20228;-77
2022/01/19 07:36:58;;;;;;;9.17;5.27;;;;;;;13.72;40.40;96009.94;5012732;28;20196;-78
2022/01/19 07:39:25;;;;;;;9.73;4.40;;;;;;;14.01;39.79;96004.19;5012732;28;20192;-76
2022/01/19 07:41:55;;;;;;;8.60;5.37;;;;;;;14.00;39.25;95958.84;5012508;28;20200;-77
2022/01/19 07:44:22;;;;;;;8.40;5.00;;;;;;;14.53;38.66;96002.44;5012776;28;20196;-77
2022/01/19 07:46:51;;;;;;;8.17;5.23;;;;;;;14.78;38.10;96002.00;5012755;28;20196;-78
2022/01/19 07:49:17;;;;;;;6.17;4.80;;;;;;;14.97;37.87;96002.97;5013472;28;20266;-77
2022/01/19 07:51:46;;;;;;;8.30;4.70;;;;;;;15.22;37.26;96011.97;5012659;28;20193;-81
2022/01/19 07:54:15;;;;;;;7.27;4.53;;;;;;;15.41;37.03;96008.59;5013231;28;20674;-77
2022/01/19 07:56:42;;;;;;;6.73;4.30;;;;;;;15.54;36.48;96007.41;5013882;28;20192;-76
2022/01/19 07:59:09;;;;;;;8.30;4.90;;;;;;;15.65;36.13;96001.31;5013535;28;20197;-79
2022/01/19 08:01:36;;;;;;;9.07;4.70;;;;;;;15.68;35.89;96007.97;5013757;28;20258;-76
2022/01/19 08:04:03;;;;;;;8.80;5.10;;;;;;;15.32;35.63;95982.66;5014127;28;20205;-79
2022/01/19 08:06:30;;;;;;;6.83;4.17;;;;;;;15.19;35.70;95984.69;5014225;28;20192;-78
2022/01/19 08:08:59;;;;;;;6.63;4.83;;;;;;;15.04;36.00;96004.91;5013633;28;20307;-79
2022/01/19 08:11:27;;;;;;;9.90;5.00;;;;;;;14.36;35.49;95920.66;5014232;28;20188;-79
2022/01/19 08:13:54;;;;;;;8.23;4.23;;;;;;;14.67;35.13;95960.06;5014150;28;20605;-79
2022/01/19 08:16:22;;;;;;;5.67;4.60;;;;;;;14.96;34.65;96007.31;5025061;28;20272;-79
2022/01/19 08:18:49;;;;;;;8.40;5.20;;;;;;;14.73;34.60;95978.41;5023938;28;20420;-79
2022/01/19 08:21:16;;;;;;;10.90;5.07;;;;;;;14.83;34.62;96013.66;5022323;28;20188;-78
2022/01/19 08:23:43;;;;;;;7.57;4.60;;;;;;;15.03;34.10;96017.94;5021058;28;20180;-79
2022/01/19 08:26:13;;;;;;;9.47;4.80;;;;;;;15.22;33.85;95987.03;5021703;28;20188;-78
2022/01/19 08:28:41;;;;;;;5.83;4.63;;;;;;;15.34;33.48;96016.06;5024954;28;20254;-78
2022/01/19 08:31:08;;;;;;;6.90;3.50;;;;;;;15.06;57.64;95950.66;5010282;28;20598;-77
2022/01/19 08:33:35;;;;;;;8.50;3.60;;;;;;;15.67;54.33;96006.31;5011687;28;20212;-76
2022/01/19 08:36:03;;;;;;;14.40;4.00;;;;;;;15.66;49.63;96002.94;5011426;28;20188;-79
2022/01/19 08:38:30;;;;;;;11.40;4.60;;;;;;;15.45;46.70;96007.38;5010974;28;20204;-79
2022/01/19 08:40:57;;;;;;;8.60;4.20;;;;;;;15.16;44.56;96000.44;5010810;28;20189;-78
2022/01/19 08:43:24;;;;;;;8.50;4.07;;;;;;;14.87;42.76;95989.28;5011264;28;20207;-77
2022/01/19 08:45:53;;;;;;;9.97;5.13;;;;;;;14.60;41.38;95987.31;5010912;28;20688;-77
2022/01/19 08:48:20;;;;;;;11.43;6.20;;;;;;;14.32;40.23;95987.81;5011835;28;20193;-77
2022/01/19 08:50:47;;;;;;;10.07;6.47;;;;;;;14.01;39.21;95976.69;5011657;28;20184;-78
2022/01/19 08:53:16;;;;;;;25.67;9.87;;;;;;;13.84;38.50;95990.13;5010575;28;20212;-74
2022/01/19 08:55:43;;;;;;;11.40;6.80;;;;;;;13.68;38.14;95994.88;5011115;28;20184;-76
2022/01/19 08:58:10;;;;;;;12.40;6.23;;;;;;;13.58;37.98;95987.13;5010448;28;20567;-74
2022/01/19 09:00:38;;;;;;;9.80;6.03;;;;;;;13.54;37.53;95983.97;4995223;28;20200;-78
2022/01/19 09:03:06;;;;;;;13.90;7.40;;;;;;;13.49;37.19;95985.28;4988185;28;20201;-74
2022/01/19 09:05:33;;;;;;;12.97;7.30;;;;;;;13.17;36.88;95950.13;4988712;28;20189;-73
2022/01/19 09:08:00;;;;;;;14.50;6.87;;;;;;;13.23;36.56;95975.34;4988102;28;20240;-73
2022/01/19 09:10:27;;;;;;;9.77;7.47;;;;;;;13.11;36.59;95976.28;4988501;28;20180;-73
2022/01/19 09:12:54;;;;;;;12.27;6.63;;;;;;;12.98;36.28;95976.44;4987954;28;20232;-74
2022/01/19 09:15:22;;;;;;;8.00;5.80;;;;;;;12.91;36.11;95975.31;4988518;28;20201;-75
2022/01/19 09:17:49;;;;;;;9.27;5.70;;;;;;;12.83;36.28;95975.09;4988642;28;20185;-73
2022/01/19 09:20:18;;;;;;;8.20;4.97;;;;;;;12.71;36.19;95965.75;4988605;28;20723;-73
2022/01/19 09:22:45;;;;;;;9.60;5.57;;;;;;;12.66;36.08;95975.56;4987948;28;20204;-76
2022/01/19 09:25:12;;;;;;;8.00;4.40;;;;;;;12.63;36.06;95966.34;4988151;28;20205;-77
2022/01/19 09:27:40;;;;;;;7.73;4.67;;;;;;;12.57;35.87;95966.03;4988805;28;20304;-74
2022/01/19 09:30:08;;;;;;;8.13;5.00;;;;;;;12.50;35.94;95961.34;4987527;28;20193;-73
2022/01/19 09:32:35;;;;;;;10.33;4.60;;;;;;;12.44;35.94;95951.56;5003623;28;20198;-76
2022/01/19 09:35:07;;;;;;;5.80;4.33;;;;;;;12.40;35.97;95945.03;5010162;28;20261;-75
2022/01/19 09:37:36;;;;;;;7.30;4.20;;;;;;;12.25;35.70;95930.81;5009843;28;20254;-74
2022/01/19 09:40:04;;;;;;;4.27;3.63;;;;;;;12.07;35.50;95909.13;5010153;28;20184;-75
2022/01/19 09:42:31;;;;;;;6.13;3.63;;;;;;;12.13;35.75;95926.63;5010636;28;20596;-75
2022/01/19 09:44:58;;;;;;;8.23;4.27;;;;;;;11.89;35.90;95896.78;5009441;28;20188;-72
2022/01/19 09:47:25;;;;;;;8.00;4.27;;;;;;;12.07;35.80;95922.78;5010384;28;20258;-73
2022/01/19 09:49:52;;;;;;;11.07;4.77;;;;;;;11.98;35.75;95931.16;5011812;28;20196;-73
2022/01/19 09:52:19;;;;;;;7.63;4.23;;;;;;;11.87;35.87;95928.59;5014092;28;20184;-73
2022/01/19 09:54:47;;;;;;;8.00;3.90;;;;;;;11.68;35.96;95914.56;5010844;28;20687;-75
2022/01/19 09:57:14;;;;;;;5.13;3.97;;;;;;;11.64;35.96;95927.72;5007145;28;20665;-73
2022/01/19 09:59:41;;;;;;;5.90;3.90;;;;;;;11.50;36.02;95929.53;5009169;28;20202;-73
2022/01/19 10:02:10;;;;;;;9.20;4.80;;;;;;;11.37;36.35;95925.44;5010146;28;20200;-75
2022/01/19 10:04:41;;;;;;;6.80;3.93;;;;;;;11.23;35.83;95927.25;5009977;28;20199;-75
2022/01/19 10:07:16;;;;;;;8.37;4.27;;;;;;;11.13;36.13;95925.47;5009523;28;20647;-73
2022/01/19 10:09:56;;;;;;;6.93;4.00;;;;;;;10.88;36.37;95890.56;5009519;28;20212;-73
2022/01/19 10:18:14;;;;;;;8.07;4.00;;;;;;;10.74;36.67;95912.03;4929625;29;20874;-74
2022/01/19 10:20:43;;;;;;;7.83;4.17;;;;;;;10.67;36.69;95911.66;4929535;29;20215;-72
2022/01/19 10:23:36;;;;;;;9.10;4.00;;;;;;;10.61;36.79;95893.34;4928253;29;20206;-71
2022/01/19 10:26:06;;;;;;;9.10;4.60;;;;;;;10.56;36.79;95903.91;4929920;29;20195;-73
2022/01/19 10:28:52;;;;;;;7.23;4.50;;;;;;;10.53;36.78;95909.22;4929803;29;20206;-75
2022/01/19 10:31:19;;;;;;;8.53;4.70;;;;;;;10.49;36.85;95900.13;4928931;29;20195;-73
2022/01/19 10:34:11;;;;;;;6.97;4.07;;;;;;;10.42;36.95;95888.72;4932413;29;20722;-73
2022/01/19 10:36:42;;;;;;;7.17;4.23;;;;;;;10.25;36.87;95869.44;4933240;29;20670;-75
2022/01/19 10:39:09;;;;;;;11.17;4.67;;;;;;;10.37;36.95;95888.22;4933175;29;20202;-72
2022/01/19 10:41:57;;;;;;;9.43;4.70;;;;;;;10.37;37.04;95896.72;4934000;29;20195;-75
2022/01/19 10:44:30;;;;;;;3.97;3.50;;;;;;;10.21;36.88;95850.91;4932843;29;20195;-71
2022/01/19 10:46:57;;;;;;;5.70;4.33;;;;;;;10.47;36.98;95872.13;4931029;29;20203;-72
2022/01/19 10:49:25;;;;;;;6.07;3.73;;;;;;;10.45;36.98;95879.09;4932938;29;20187;-72
2022/01/19 10:51:57;;;;;;;10.07;4.80;;;;;;;10.42;37.03;95871.63;4952192;28;20203;-73
2022/01/19 10:54:27;;;;;;;8.30;3.90;;;;;;;10.41;37.10;95854.66;5013172;28;20212;-73
2022/01/19 10:56:58;;;;;;;7.87;4.63;;;;;;;10.40;37.10;95847.88;5012873;28;20718;-71
2022/01/19 10:59:27;;;;;;;5.10;4.17;;;;;;;9.61;37.22;95731.59;5013353;28;20275;-75
2022/01/19 11:01:56;;;;;;;6.70;3.80;;;;;;;10.35;37.15;95844.84;5013397;28;20192;-73
2022/01/19 11:04:28;;;;;;;8.80;5.00;;;;;;;10.35;37.27;95834.63;5015920;28;20185;-72
2022/01/19 11:06:58;;;;;;;6.43;4.20;;;;;;;10.35;37.24;95836.38;5013077;28;20200;-74
2022/01/19 11:09:28;;;;;;;11.00;4.33;;;;;;;10.35;37.29;95826.94;5013219;28;20664;-79
2022/01/19 11:12:02;;;;;;;6.67;4.03;;;;;;;10.34;37.42;95820.22;5010667;28;20633;-73
2022/01/19 11:14:29;;;;;;;6.73;4.57;;;;;;;10.30;37.40;95811.13;5012491;28;20232;-77
2022/01/19 11:16:56;;;;;;;8.73;4.47;;;;;;;10.31;37.47;95807.63;5012563;28;20180;-71
2022/01/19 11:19:24;;;;;;;7.20;4.83;;;;;;;10.31;37.54;95812.75;5013080;28;20184;-74
2022/01/19 11:22:09;;;;;;;9.03;4.67;;;;;;;10.23;37.34;95794.53;5015315;28;20219;-72
2022/01/19 11:24:46;;;;;;;8.93;4.93;;;;;;;10.30;37.53;95798.34;5013397;28;20276;-73
2022/01/19 11:27:15;;;;;;;9.13;4.77;;;;;;;10.19;37.72;95772.66;5011635;28;20189;-74
2022/01/19 11:29:42;;;;;;;9.23;4.87;;;;;;;10.29;37.81;95794.97;5003087;28;20193;-76
2022/01/19 11:32:18;;;;;;;11.13;5.27;;;;;;;10.25;37.91;95792.75;5001258;28;20181;-74
2022/01/19 11:34:49;;;;;;;8.63;5.20;;;;;;;10.28;38.10;95795.09;5001230;28;20221;-75
2022/01/19 11:37:32;;;;;;;11.87;5.30;;;;;;;10.22;37.90;95792.91;5001106;28;20240;-73
2022/01/19 11:40:18;;;;;;;9.17;5.53;;;;;;;10.17;38.08;95785.56;4992217;28;20268;-73
2022/01/19 11:42:46;;;;;;;8.67;5.13;;;;;;;10.10;38.05;95766.47;4992470;28;20648;-72
2022/01/19 11:45:37;;;;;;;9.60;5.10;;;;;;;10.24;38.17;95781.69;4991840;28;20189;-72
2022/01/19 11:48:24;;;;;;;9.13;5.00;;;;;;;10.19;38.18;95777.78;4992677;28;20570;-74
2022/01/19 11:50:53;;;;;;;12.17;5.43;;;;;;;10.24;38.10;95780.84;4991703;28;20189;-74
2022/01/19 11:53:22;;;;;;;7.73;4.83;;;;;;;10.03;38.17;95745.66;4991935;28;20186;-75
2022/01/19 11:56:04;;;;;;;6.20;4.50;;;;;;;10.23;38.11;95769.81;4992570;28;20217;-73
2022/01/19 11:58:32;;;;;;;11.60;5.13;;;;;;;10.22;38.19;95778.38;4991898;28;20197;-72
2022/01/19 12:00:59;;;;;;;12.43;4.87;;;;;;;10.22;37.96;95765.59;4990692;28;20574;-72
2022/01/19 12:03:29;;;;;;;11.57;5.60;;;;;;;10.16;37.76;95755.84;4990347;28;20215;-73
2022/01/19 12:05:57;;;;;;;9.97;5.17;;;;;;;10.10;38.41;95735.78;4990794;28;20616;-76
2022/01/19 12:08:33;;;;;;;10.73;5.03;;;;;;;10.22;38.18;95759.69;4991987;28;20232;-72
2022/01/19 12:11:11;;;;;;;6.20;5.17;;;;;;;10.18;38.17;95758.25;4991976;28;20513;-76
2022/01/19 12:19:24;;;;;;;10.77;6.20;;;;;;;9.90;38.36;95708.31;4991747;28;20576;-72
2022/01/19 12:21:55;;;;;;;11.80;5.77;;;;;;;10.15;38.36;95738.88;4991446;28;20268;-71
2022/01/19 12:24:26;;;;;;;10.07;5.63;;;;;;;10.15;38.56;95740.63;4991483;28;20225;-71
2022/01/19 12:26:59;;;;;;;11.70;5.37;;;;;;;10.14;38.42;95739.78;4991563;28;20193;-71
2022/01/19 12:29:45;;;;;;;10.33;5.17;;;;;;;10.14;38.62;95733.84;4989355;28;20685;-72
2022/01/19 12:32:45;;;;;;;8.50;5.53;;;;;;;10.12;38.63;95735.72;4988703;28;20196;-73
2022/01/19 12:35:17;;;;;;;11.80;6.03;;;;;;;10.10;38.55;95735.00;4988833;28;20224;-75
2022/01/19 12:37:47;;;;;;;10.10;5.97;;;;;;;10.08;38.76;95729.19;4989558;28;20208;-74
2022/01/19 12:40:45;;;;;;;7.80;6.03;;;;;;;10.07;38.67;95723.25;4988806;28;20567;-72
2022/01/19 12:43:29;;;;;;;19.40;7.97;;;;;;;10.05;38.74;95717.44;4928241;29;20199;-70
2022/01/19 12:45:58;;;;;;;12.30;7.33;;;;;;;10.02;38.85;95713.38;4928679;29;20202;-70
2022/01/19 12:48:41;;;;;;;13.57;8.03;;;;;;;10.03;38.97;95719.28;4928678;29;20195;-73
2022/01/19 12:51:36;;;;;;;16.10;7.63;;;;;;;10.01;38.98;95713.47;4928207;29;20195;-70
2022/01/19 12:54:03;;;;;;;15.17;7.13;;;;;;;10.01;39.32;95713.47;4927985;29;20211;-71
2022/01/19 12:56:30;;;;;;;14.03;7.47;;;;;;;9.98;39.21;95706.03;4927930;29;20191;-69
2022/01/19 12:59:03;;;;;;;15.03;7.40;;;;;;;9.98;39.15;95696.63;4927938;29;20191;-72
2022/01/19 13:01:31;;;;;;;14.17;6.93;;;;;;;9.97;39.33;95692.44;4928392;29;20291;-71